Cholame, California
Current Conditions -  °F | °C
As of 10:53 PM on Tuesday 21 Oct 2014 (Local Time) from KPRB Reporting Station
Clear Clear  
Wind Chill: 58°   Ceiling: Unl
Heat Index: 58°   Visibility: 10mi
Dew Point: 47°   Wind: 8mph
Humidity: 67%   Direction: 300°WNW
Pressure: 30.02"   Gusts: NA
Location:  35.5788°N, 120.247°W
Report Text: KPRB 220553Z AUTO 30007KT 10SM CLR 14/08 A3002 RMK AO2 SLP163 T01440083 10244 20144 51016 TSNO
Loading
Personal Weather Stations






























Interactive Weather Map
Tropical Storm Tracking
New forecast layout! Learn more

10-Day Weather Forecast

Advertisements
Track Severe Weather on mobile